Terminal Aerodrome Forecast
Issued by NWS Omaha/Valley, NE

Home | Current Version | Previous Version | Text Only | Print | Product List | Glossary On
Versions: 1 2 3 4 5 6 7 8 9 10 11 12 13 14 15 16 17 18 19 20 21 22 23 24 25 26 27
000
FTUS43 KOAX 232329
TAFOMA
TAF
KOMA 232329Z 2400/2424 17024G29KT P6SM SCT090 BKN250
     FM241000 15011KT P6SM OVC050
      TEMPO 2410/2414 5SM -RA BR OVC035
     FM241400 17012KT P6SM OVC050=

USA.gov is the U.S. government's official web portal to all federal, state and local government web resources and services.